Аэропорт: Братск. Братск

ICAO: UIBB

METAR:
2022-06-26 11:30:00
UIBB 261130Z 24003MPS 210V270 9999 FEW050CB 24/17 Q1003 R30/60D NOSIG RMK QFE710/0947
METAR:
2022-06-26 08:00:00
TAF UIBB 260800Z 2609/2709 20003G08MPS 9999 BKN020CB TEMPO 2609/2615 26006G15MPS -TSRA